Terminal Aerodrome Forecast
Issued by NWS Boston, MA

Home | Current Version | Previous Version | Text Only | Print | Product List | Glossary On
Versions: 1 2 3 4 5 6 7 8 9 10 11 12 13 14 15 16 17 18 19 20 21 22 23 24 25 26 27 28 29 30 31 32 33 34 35 36 37 38 39 40 41 42
000
FTUS41 KBOX 230816 AAA
TAFBOS
TAF AMD
KBOS 230816Z 2308/2412 24005KT P6SM BKN090
     FM231200 26007KT P6SM BKN050
     FM231700 31011KT P6SM -SHRA BKN035
     FM232000 31016G24KT P6SM BKN040
     FM240000 31017G31KT P6SM BKN050=

USA.gov is the U.S. government's official web portal to all federal, state and local government web resources and services.